createdAt,value
2017-11-22T00:00:58.306Z,84.40
2017-11-22T00:02:00.900Z,84.40
2017-11-22T00:03:03.658Z,84.40
2017-11-22T00:04:06.315Z,84.30
2017-11-22T00:05:08.988Z,84.10
2017-11-22T00:06:11.555Z,84.60
2017-11-22T00:07:14.299Z,84.70
2017-11-22T00:08:16.841Z,84.50
2017-11-22T00:09:20.444Z,84.30
2017-11-22T00:10:23.013Z,84.30
2017-11-22T00:11:25.622Z,84.50
2017-11-22T00:12:28.184Z,84.30
2017-11-22T00:13:30.943Z,84.40
2017-11-22T00:14:33.497Z,84.80
2017-11-22T00:15:36.269Z,84.70
2017-11-22T00:16:38.831Z,84.60
2017-11-22T00:17:41.608Z,84.60
2017-11-22T00:18:44.165Z,84.90
2017-11-22T00:19:46.973Z,84.80
2017-11-22T00:20:49.563Z,84.70
2017-11-22T00:21:52.296Z,84.80
2017-11-22T00:22:54.860Z,84.30
2017-11-22T00:23:57.622Z,84.20
2017-11-22T00:25:00.178Z,84.40
2017-11-22T00:26:02.971Z,84.50
2017-11-22T00:27:05.567Z,84.70
2017-11-22T00:28:08.313Z,84.40
2017-11-22T00:29:10.913Z,84.10
2017-11-22T00:30:13.691Z,84.40
2017-11-22T00:31:16.293Z,84.60
2017-11-22T00:32:19.007Z,84.70
2017-11-22T00:33:21.583Z,84.50
2017-11-22T00:34:24.343Z,84.50
2017-11-22T00:35:26.963Z,84.90
2017-11-22T00:36:29.720Z,84.60
2017-11-22T00:37:33.071Z,84.40
2017-11-22T00:38:35.679Z,84.40
2017-11-22T00:39:39.227Z,84.70
2017-11-22T00:40:41.800Z,84.60
2017-11-22T00:41:44.572Z,84.50
2017-11-22T00:42:47.159Z,84.60
2017-11-22T00:43:49.908Z,84.70
2017-11-22T00:44:52.495Z,85.20
2017-11-22T00:45:55.239Z,84.90
2017-11-22T00:46:57.850Z,84.70
2017-11-22T00:48:01.499Z,84.80
2017-11-22T00:49:04.094Z,84.70
2017-11-22T00:50:06.930Z,84.90
2017-11-22T00:51:09.513Z,85.50
2017-11-22T00:52:12.201Z,84.60
2017-11-22T00:53:14.830Z,84.80
2017-11-22T00:54:17.515Z,85.00
2017-11-22T00:55:20.099Z,85.00
2017-11-22T00:56:22.870Z,84.80
2017-11-22T00:57:25.476Z,85.00
2017-11-22T00:58:28.207Z,85.10
2017-11-22T00:59:30.852Z,85.70
2017-11-22T01:00:33.538Z,84.90
2017-11-22T01:01:36.134Z,84.70
2017-11-22T01:02:39.502Z,85.10
2017-11-22T01:03:42.097Z,84.80
2017-11-22T01:04:45.462Z,84.70
2017-11-22T01:05:50.060Z,84.60
2017-11-22T01:06:52.681Z,84.50
2017-11-22T01:07:55.289Z,84.60
2017-11-22T01:08:57.973Z,84.40
2017-11-22T01:10:00.569Z,84.40
2017-11-22T01:11:03.924Z,84.40
2017-11-22T01:12:06.513Z,84.40
2017-11-22T01:13:09.884Z,84.40
2017-11-22T01:14:12.618Z,84.40
2017-11-22T01:15:15.215Z,84.40
2017-11-22T01:16:17.829Z,84.10
2017-11-22T01:17:21.196Z,84.20
2017-11-22T01:18:23.791Z,84.20
2017-11-22T01:19:26.483Z,84.30
2017-11-22T01:20:29.077Z,84.20
2017-11-22T01:21:31.836Z,84.20
2017-11-22T01:22:34.423Z,84.30
2017-11-22T01:23:37.215Z,84.30
2017-11-22T01:24:39.925Z,84.40
2017-11-22T01:25:43.765Z,84.50
2017-11-22T01:26:46.372Z,84.00
2017-11-22T01:27:49.088Z,85.30
2017-11-22T01:28:51.673Z,84.70
2017-11-22T01:29:54.502Z,84.60
2017-11-22T01:30:57.172Z,84.80
2017-11-22T01:31:59.760Z,84.30
2017-11-22T01:33:02.331Z,84.70
2017-11-22T01:34:05.094Z,84.80
2017-11-22T01:35:07.747Z,84.60
2017-11-22T01:36:10.522Z,84.60
2017-11-22T01:37:13.115Z,84.70
2017-11-22T01:38:16.674Z,84.60
2017-11-22T01:39:19.245Z,84.50
2017-11-22T01:40:22.001Z,84.60
2017-11-22T01:41:24.597Z,84.20
2017-11-22T01:42:27.368Z,84.60
2017-11-22T01:43:29.937Z,85.10
2017-11-22T01:44:32.681Z,85.10
2017-11-22T01:45:35.323Z,85.10
2017-11-22T01:46:38.666Z,85.00
2017-11-22T01:47:41.245Z,85.00
2017-11-22T01:48:43.998Z,84.80
2017-11-22T01:49:46.562Z,84.80
2017-11-22T01:50:49.305Z,84.30
2017-11-22T01:51:51.852Z,84.50
2017-11-22T01:52:55.282Z,84.50
2017-11-22T01:53:57.841Z,84.50
2017-11-22T01:55:00.620Z,84.80
2017-11-22T01:56:03.183Z,84.80
2017-11-22T01:57:06.054Z,84.70
2017-11-22T01:58:08.612Z,84.50
2017-11-22T01:59:11.318Z,84.50
2017-11-22T02:00:13.875Z,84.50
2017-11-22T02:01:16.612Z,84.80
2017-11-22T02:02:19.171Z,84.50
2017-11-22T02:03:22.567Z,84.70
2017-11-22T02:04:25.107Z,84.70
2017-11-22T02:05:28.544Z,84.50
2017-11-22T02:06:31.090Z,84.50
2017-11-22T02:07:33.862Z,84.40
2017-11-22T02:08:36.402Z,84.60
2017-11-22T02:09:39.822Z,84.50
2017-11-22T02:10:42.702Z,84.50
2017-11-22T02:11:45.461Z,84.50
2017-11-22T02:12:47.998Z,84.70
2017-11-22T02:13:51.452Z,84.90
2017-11-22T02:14:54.017Z,84.50
2017-11-22T02:15:56.743Z,84.20
2017-11-22T02:17:00.066Z,84.80
2017-11-22T02:18:02.721Z,84.70
2017-11-22T02:19:05.266Z,84.50
2017-11-22T02:20:08.160Z,84.40
2017-11-22T02:21:10.703Z,84.30
2017-11-22T02:22:14.036Z,84.20
2017-11-22T02:23:16.578Z,84.10
2017-11-22T02:24:19.319Z,84.20
2017-11-22T02:25:21.865Z,84.40
2017-11-22T02:26:25.806Z,84.30
2017-11-22T02:27:28.482Z,84.20
2017-11-22T02:28:32.153Z,84.20
2017-11-22T02:29:34.695Z,84.20
2017-11-22T02:30:37.272Z,84.10
2017-11-22T02:31:40.608Z,84.30
2017-11-22T02:32:43.363Z,84.30
2017-11-22T02:33:45.896Z,84.10
2017-11-22T02:34:49.411Z,84.50
2017-11-22T02:35:51.951Z,84.40
2017-11-22T02:36:55.389Z,84.10
2017-11-22T02:37:57.943Z,83.90
2017-11-22T02:39:00.741Z,84.10
2017-11-22T02:40:03.378Z,84.20
2017-11-22T02:41:06.044Z,84.00
2017-11-22T02:42:08.719Z,84.10
2017-11-22T02:43:11.354Z,84.30
2017-11-22T02:44:14.688Z,84.30
2017-11-22T02:45:17.341Z,84.30
2017-11-22T02:46:19.883Z,84.20
2017-11-22T02:47:22.690Z,84.30
2017-11-22T02:48:25.263Z,84.30
2017-11-22T02:49:28.120Z,84.50
2017-11-22T02:50:30.666Z,84.40
2017-11-22T02:51:33.452Z,84.20
2017-11-22T02:52:36.016Z,84.20
2017-11-22T02:53:38.783Z,84.40
2017-11-22T02:54:41.327Z,84.50
2017-11-22T02:55:44.849Z,84.20
2017-11-22T02:56:47.398Z,84.20
2017-11-22T02:57:50.086Z,84.10
2017-11-22T02:58:52.649Z,84.20
2017-11-22T02:59:55.420Z,84.20
2017-11-22T03:00:57.958Z,84.10
2017-11-22T03:02:01.359Z,84.00
2017-11-22T03:03:03.906Z,83.80
2017-11-22T03:04:07.330Z,84.40
2017-11-22T03:05:09.875Z,84.20
2017-11-22T03:06:13.289Z,83.90
2017-11-22T03:07:15.850Z,83.90
2017-11-22T03:08:18.622Z,84.00
2017-11-22T03:09:21.188Z,84.10
2017-11-22T03:10:23.955Z,84.20
2017-11-22T03:11:26.528Z,84.00
2017-11-22T03:12:29.292Z,84.20
2017-11-22T03:13:31.835Z,84.00
2017-11-22T03:14:35.253Z,83.90
2017-11-22T03:15:37.812Z,83.90
2017-11-22T03:16:40.592Z,84.00
2017-11-22T03:17:43.137Z,84.10
2017-11-22T03:18:47.766Z,84.00
2017-11-22T03:19:50.376Z,83.90
2017-11-22T03:20:53.111Z,84.10
2017-11-22T03:21:55.651Z,84.20
2017-11-22T03:22:59.046Z,84.20
2017-11-22T03:24:01.593Z,84.20
2017-11-22T03:25:05.016Z,84.10
2017-11-22T03:26:07.566Z,84.10
2017-11-22T03:27:10.355Z,83.90
2017-11-22T03:28:12.916Z,84.20
2017-11-22T03:29:15.774Z,84.10
2017-11-22T03:30:19.080Z,84.20
2017-11-22T03:31:21.941Z,84.20
2017-11-22T03:32:24.485Z,84.40
2017-11-22T03:33:27.911Z,84.00
2017-11-22T03:34:30.482Z,84.00
2017-11-22T03:35:33.240Z,83.90
2017-11-22T03:36:35.909Z,84.00
2017-11-22T03:37:38.593Z,84.10
2017-11-22T03:38:41.128Z,84.20
2017-11-22T03:39:44.540Z,84.00
2017-11-22T03:40:47.097Z,83.90
2017-11-22T03:41:49.987Z,84.00
2017-11-22T03:42:52.573Z,83.80
2017-11-22T03:43:55.218Z,83.70
2017-11-22T03:44:57.776Z,83.80
2017-11-22T03:46:00.538Z,83.70
2017-11-22T03:47:03.136Z,83.80
2017-11-22T03:48:11.657Z,84.00
2017-11-22T03:49:14.941Z,84.10
2017-11-22T03:51:58.018Z,84.60
2017-11-22T03:53:07.084Z,84.70
2017-11-22T03:54:09.622Z,84.60
2017-11-22T03:55:12.291Z,84.90
2017-11-22T03:56:14.838Z,84.80
2017-11-22T03:57:17.635Z,84.70
2017-11-22T03:58:21.989Z,84.50
2017-11-22T03:59:24.792Z,84.60
2017-11-22T04:00:30.144Z,84.60
2017-11-22T04:01:35.787Z,84.40
2017-11-22T04:02:44.155Z,84.30
2017-11-22T04:03:47.776Z,84.40
2017-11-22T04:04:56.875Z,84.40
2017-11-22T04:06:05.510Z,84.40
2017-11-22T04:07:08.426Z,83.80
2017-11-22T04:08:17.502Z,84.10
2017-11-22T04:09:20.422Z,84.70
2017-11-22T04:10:23.140Z,84.20
2017-11-22T04:11:29.600Z,83.80
2017-11-22T04:12:32.472Z,84.10
2017-11-22T04:13:35.039Z,83.90
2017-11-22T04:14:37.806Z,84.10
2017-11-22T04:15:40.396Z,84.20
2017-11-22T04:16:43.125Z,84.30
2017-11-22T04:17:46.444Z,83.80
2017-11-22T04:18:49.384Z,83.80
2017-11-22T04:19:52.704Z,83.60
2017-11-22T04:20:57.216Z,84.40
2017-11-22T04:21:59.787Z,83.50
2017-11-22T04:23:02.542Z,83.40
2017-11-22T04:24:05.108Z,83.50
2017-11-22T04:25:07.870Z,83.50
2017-11-22T04:26:11.182Z,83.60
2017-11-22T04:27:13.834Z,83.30
2017-11-22T04:28:16.377Z,83.20
2017-11-22T04:29:19.797Z,83.50
2017-11-22T04:30:22.335Z,83.50
2017-11-22T04:31:25.740Z,83.50
2017-11-22T04:32:28.286Z,83.40
2017-11-22T04:33:31.691Z,83.60
2017-11-22T04:34:34.272Z,83.50
2017-11-22T04:35:37.022Z,83.20
2017-11-22T04:36:39.571Z,83.30
2017-11-22T04:37:42.990Z,83.20
2017-11-22T04:38:45.560Z,83.20
2017-11-22T04:39:48.328Z,83.40
2017-11-22T04:40:50.902Z,83.00
2017-11-22T04:41:53.651Z,83.50
2017-11-22T04:42:56.218Z,83.30
2017-11-22T04:43:59.007Z,83.30
2017-11-22T04:45:01.584Z,83.10
2017-11-22T04:46:04.322Z,82.60
2017-11-22T04:47:06.880Z,82.80
2017-11-22T04:48:10.303Z,83.00
2017-11-22T04:49:12.861Z,83.00
2017-11-22T04:50:16.468Z,83.00
2017-11-22T04:51:19.135Z,83.00
2017-11-22T04:52:22.005Z,83.00
2017-11-22T04:53:24.671Z,82.80
2017-11-22T04:54:27.650Z,82.50
2017-11-22T04:55:30.200Z,82.80
2017-11-22T04:56:32.888Z,82.70
2017-11-22T04:57:35.420Z,82.80
2017-11-22T04:58:38.852Z,83.40
2017-11-22T04:59:41.398Z,82.60
2017-11-22T05:00:44.147Z,82.70
2017-11-22T05:01:47.455Z,82.60
2017-11-22T05:02:50.143Z,82.60
2017-11-22T05:03:52.681Z,82.80
2017-11-22T05:04:55.447Z,83.10
2017-11-22T05:05:58.026Z,83.60
2017-11-22T05:07:00.789Z,83.60
2017-11-22T05:08:03.373Z,83.90
2017-11-22T05:09:06.146Z,83.90
2017-11-22T05:10:08.695Z,83.90
2017-11-22T05:11:11.503Z,84.30
2017-11-22T05:12:14.051Z,84.10
2017-11-22T05:13:16.825Z,84.40
2017-11-22T05:14:19.385Z,84.60
2017-11-22T05:15:22.152Z,84.60
2017-11-22T05:16:24.740Z,84.60
2017-11-22T05:17:27.497Z,84.20
2017-11-22T05:18:30.068Z,84.00
2017-11-22T05:19:32.824Z,84.10
2017-11-22T05:20:35.364Z,84.10
2017-11-22T05:21:38.769Z,83.60
2017-11-22T05:22:42.087Z,83.60
2017-11-22T05:23:44.728Z,83.60
2017-11-22T05:24:47.272Z,83.50
2017-11-22T05:25:50.675Z,84.00
2017-11-22T05:26:53.986Z,83.80
2017-11-22T05:27:56.634Z,83.80
2017-11-22T05:28:59.233Z,83.50
2017-11-22T05:30:01.971Z,83.70
2017-11-22T05:31:04.547Z,83.60
2017-11-22T05:32:07.350Z,83.10
2017-11-22T05:33:09.936Z,83.50
2017-11-22T05:34:12.671Z,83.50
2017-11-22T05:35:15.230Z,83.50
2017-11-22T05:36:18.026Z,83.10
2017-11-22T05:37:20.836Z,83.40
2017-11-22T05:38:23.655Z,83.20
2017-11-22T05:39:26.195Z,82.20
2017-11-22T05:40:29.599Z,82.90
2017-11-22T05:41:32.158Z,82.90
2017-11-22T05:42:34.972Z,83.20
2017-11-22T05:43:37.523Z,83.10
2017-11-22T05:44:40.294Z,82.90
2017-11-22T05:45:42.853Z,83.00
2017-11-22T05:46:45.644Z,83.30
2017-11-22T05:47:48.195Z,82.90
2017-11-22T05:48:50.971Z,83.00
2017-11-22T05:49:53.538Z,82.50
2017-11-22T05:50:58.139Z,82.60
2017-11-22T05:52:00.719Z,82.70
2017-11-22T05:53:03.481Z,82.80
2017-11-22T05:54:07.071Z,83.20
2017-11-22T05:55:09.734Z,82.80
2017-11-22T05:56:12.305Z,82.70
2017-11-22T05:57:15.087Z,82.40
2017-11-22T05:58:17.641Z,82.10
2017-11-22T05:59:20.658Z,82.60
2017-11-22T06:00:26.547Z,81.90
2017-11-22T06:01:30.047Z,82.00
2017-11-22T06:02:32.591Z,82.00
2017-11-22T06:03:36.117Z,81.90
2017-11-22T06:04:38.690Z,81.90
2017-11-22T06:05:41.344Z,81.90
2017-11-22T06:06:44.040Z,82.50
2017-11-22T06:07:47.406Z,82.00
2017-11-22T06:08:50.111Z,81.90
2017-11-22T06:09:53.053Z,81.90
2017-11-22T06:10:55.612Z,81.70
2017-11-22T06:11:58.292Z,81.50
2017-11-22T06:13:00.978Z,81.40
2017-11-22T06:14:03.659Z,81.50
2017-11-22T06:15:06.216Z,81.30
2017-11-22T06:16:08.956Z,81.70
2017-11-22T06:17:11.647Z,81.30
2017-11-22T06:18:14.330Z,81.30
2017-11-22T06:19:16.890Z,81.00
2017-11-22T06:20:19.640Z,81.00
2017-11-22T06:21:22.174Z,80.90
2017-11-22T06:22:26.805Z,80.80
2017-11-22T06:23:29.349Z,80.80
2017-11-22T06:24:32.182Z,80.90
2017-11-22T06:25:34.725Z,80.90
2017-11-22T06:26:37.501Z,81.00
2017-11-22T06:27:40.064Z,80.80
2017-11-22T06:28:42.841Z,80.90
2017-11-22T06:29:57.307Z,80.80
2017-11-22T06:30:59.847Z,80.60
2017-11-22T06:32:02.562Z,80.80
2017-11-22T06:33:05.107Z,81.30
2017-11-22T06:34:07.849Z,80.80
2017-11-22T06:35:10.511Z,80.70
2017-11-22T06:36:13.225Z,80.90
2017-11-22T06:37:15.829Z,81.00
2017-11-22T06:38:19.445Z,80.60
2017-11-22T06:39:23.884Z,80.60
2017-11-22T06:40:26.661Z,80.60
2017-11-22T06:41:29.212Z,80.50
2017-11-22T06:42:32.024Z,80.40
2017-11-22T06:43:34.578Z,80.50
2017-11-22T06:44:37.295Z,80.60
2017-11-22T06:45:40.616Z,80.50
2017-11-22T06:46:43.270Z,80.50
2017-11-22T06:47:45.808Z,80.50
2017-11-22T06:48:49.235Z,80.30
2017-11-22T06:49:51.790Z,80.20
2017-11-22T06:50:54.829Z,80.10
2017-11-22T06:51:57.545Z,80.60
2017-11-22T06:53:00.192Z,80.40
2017-11-22T06:54:02.789Z,80.10
2017-11-22T06:55:05.547Z,80.00
2017-11-22T06:56:08.095Z,79.90
2017-11-22T06:57:11.584Z,80.30
2017-11-22T06:58:14.946Z,80.40
2017-11-22T06:59:17.775Z,80.40
2017-11-22T07:00:20.357Z,80.20
2017-11-22T07:01:23.103Z,80.60
2017-11-22T07:02:31.433Z,80.30
2017-11-22T07:05:06.129Z,79.90
2017-11-22T07:06:08.690Z,79.70
2017-11-22T07:07:11.253Z,79.80
2017-11-22T07:08:13.834Z,80.00
2017-11-22T07:09:16.505Z,80.10
2017-11-22T07:10:19.088Z,80.00
2017-11-22T07:11:22.043Z,79.70
2017-11-22T07:12:24.586Z,79.60
2017-11-22T07:13:28.100Z,79.50
2017-11-22T07:14:30.672Z,79.50
2017-11-22T07:15:33.443Z,79.50
2017-11-22T07:16:41.763Z,79.60
2017-11-22T07:17:44.620Z,79.60
2017-11-22T07:18:47.185Z,79.60
2017-11-22T07:19:49.951Z,79.00
2017-11-22T07:20:52.495Z,79.10
2017-11-22T07:21:55.303Z,79.30
2017-11-22T07:22:57.870Z,79.30
2017-11-22T07:24:00.641Z,79.30
2017-11-22T07:25:03.189Z,79.30
2017-11-22T07:26:05.956Z,79.20
2017-11-22T07:27:08.521Z,79.10
2017-11-22T07:28:11.312Z,79.10
2017-11-22T07:29:13.896Z,79.00
2017-11-22T07:30:16.683Z,79.30
2017-11-22T07:31:19.257Z,79.20
2017-11-22T07:32:22.020Z,78.80
2017-11-22T07:33:24.571Z,78.70
2017-11-22T07:34:27.318Z,79.00
2017-11-22T07:35:35.472Z,78.80
2017-11-22T07:36:43.779Z,79.00
2017-11-22T07:37:51.227Z,79.70
2017-11-22T07:38:53.957Z,78.70
2017-11-22T07:39:56.508Z,78.80
2017-11-22T07:40:59.992Z,78.60
2017-11-22T07:42:03.345Z,78.70
2017-11-22T07:43:06.188Z,78.70
2017-11-22T07:44:08.746Z,78.80
2017-11-22T07:45:11.545Z,78.60
2017-11-22T07:46:14.103Z,78.90
2017-11-22T07:47:18.686Z,78.70
2017-11-22T07:48:21.268Z,78.80
2017-11-22T07:49:24.096Z,78.60
2017-11-22T07:50:27.486Z,78.40
2017-11-22T07:51:36.021Z,78.30
2017-11-22T07:52:38.590Z,78.60
2017-11-22T07:53:41.166Z,78.60
2017-11-22T07:54:44.511Z,78.50
2017-11-22T07:55:49.055Z,78.20
2017-11-22T07:56:51.608Z,78.20
2017-11-22T07:57:55.226Z,78.20
2017-11-22T07:58:57.814Z,78.30
2017-11-22T08:00:00.548Z,78.30
2017-11-22T08:01:03.139Z,78.10
2017-11-22T08:02:05.922Z,78.30
2017-11-22T08:03:09.279Z,78.20
2017-11-22T08:04:17.763Z,78.30
2017-11-22T08:05:21.279Z,78.00
2017-11-22T08:06:23.976Z,78.00
2017-11-22T08:07:26.526Z,78.10
2017-11-22T08:08:29.306Z,78.10
2017-11-22T08:09:32.155Z,78.00
2017-11-22T08:10:35.064Z,77.80
2017-11-22T08:11:37.645Z,77.90
2017-11-22T08:12:40.341Z,77.90
2017-11-22T08:13:42.952Z,78.00
2017-11-22T08:15:45.869Z,77.60
2017-11-22T08:16:48.444Z,77.60
2017-11-22T08:17:51.204Z,78.00
2017-11-22T08:18:53.744Z,78.10
2017-11-22T08:19:56.501Z,77.70
2017-11-22T08:20:59.054Z,77.80
2017-11-22T08:22:01.872Z,77.90
2017-11-22T08:23:04.426Z,77.80
2017-11-22T08:24:07.219Z,77.80
2017-11-22T08:25:13.783Z,78.50
2017-11-22T08:26:16.559Z,77.70
2017-11-22T08:27:19.116Z,77.70
2017-11-22T08:28:21.868Z,77.50
2017-11-22T08:29:24.642Z,77.20
2017-11-22T08:30:27.717Z,77.30
2017-11-22T08:31:30.387Z,77.50
2017-11-22T08:32:33.179Z,77.10
2017-11-22T08:33:35.817Z,77.50
2017-11-22T08:34:38.488Z,77.40
2017-11-22T08:35:41.030Z,77.50
2017-11-22T08:36:44.466Z,77.50
2017-11-22T08:37:47.024Z,77.40
2017-11-22T08:38:51.724Z,77.20
2017-11-22T08:39:54.302Z,77.20
2017-11-22T08:40:57.912Z,77.10
2017-11-22T08:42:00.460Z,76.90
2017-11-22T08:43:09.019Z,76.60
2017-11-22T08:44:12.710Z,76.40
2017-11-22T08:45:15.354Z,76.40
2017-11-22T08:46:17.912Z,76.50
2017-11-22T08:47:22.502Z,76.80
2017-11-22T08:48:25.076Z,76.30
2017-11-22T08:49:27.866Z,76.30
2017-11-22T08:50:30.423Z,76.50
2017-11-22T08:51:33.208Z,76.60
2017-11-22T08:52:35.770Z,75.90
2017-11-22T08:53:38.548Z,76.30
2017-11-22T08:54:46.710Z,75.80
2017-11-22T08:55:55.120Z,76.00
2017-11-22T08:58:38.287Z,76.10
2017-11-22T08:59:55.998Z,76.10
2017-11-22T09:00:58.577Z,75.90
2017-11-22T09:02:01.986Z,76.00
2017-11-22T09:03:05.684Z,75.40
2017-11-22T09:04:10.057Z,75.30
2017-11-22T09:05:12.808Z,76.40
2017-11-22T09:06:21.197Z,75.50
2017-11-22T09:07:24.928Z,75.30
2017-11-22T09:08:31.511Z,75.60
2017-11-22T09:09:34.429Z,75.20
2017-11-22T09:10:37.219Z,75.20
2017-11-22T09:11:41.083Z,75.20
2017-11-22T09:12:48.435Z,75.40
2017-11-22T09:13:52.601Z,75.40
2017-11-22T09:14:55.379Z,75.30
2017-11-22T09:15:58.159Z,75.10
2017-11-22T09:17:01.016Z,74.80
2017-11-22T09:18:07.174Z,74.90
2017-11-22T09:19:11.936Z,75.10
2017-11-22T09:20:14.505Z,75.50
2017-11-22T09:21:17.109Z,75.60
2017-11-22T09:22:19.781Z,75.20
2017-11-22T09:23:22.477Z,74.70
2017-11-22T09:26:01.302Z,74.70
2017-11-22T09:27:09.726Z,74.20
2017-11-22T09:28:13.990Z,74.40
2017-11-22T09:29:16.674Z,74.30
2017-11-22T09:30:19.331Z,74.70
2017-11-22T09:31:27.421Z,74.30
2017-11-22T09:32:32.953Z,73.90
2017-11-22T09:33:35.531Z,73.90
2017-11-22T09:34:43.999Z,74.30
2017-11-22T09:35:47.322Z,74.10
2017-11-22T09:36:50.102Z,74.00
2017-11-22T09:37:52.670Z,73.90
2017-11-22T09:38:55.434Z,74.10
2017-11-22T09:39:58.001Z,73.90
2017-11-22T09:41:00.777Z,74.20
2017-11-22T09:42:03.362Z,74.20
2017-11-22T09:43:06.119Z,74.00
2017-11-22T09:44:08.698Z,73.80
2017-11-22T09:45:11.609Z,73.50
2017-11-22T09:46:14.943Z,74.00
2017-11-22T09:47:17.696Z,74.00
2017-11-22T09:48:26.154Z,73.70
2017-11-22T09:49:28.923Z,73.90
2017-11-22T09:50:33.094Z,73.50
2017-11-22T09:51:35.644Z,73.40
2017-11-22T09:52:38.443Z,73.40
2017-11-22T09:53:41.023Z,73.30
2017-11-22T09:54:43.772Z,72.80
2017-11-22T09:55:46.327Z,73.20
2017-11-22T09:56:49.098Z,73.10
2017-11-22T09:57:51.740Z,73.00
2017-11-22T09:58:55.374Z,72.70
2017-11-22T09:59:57.956Z,72.70
2017-11-22T10:01:00.703Z,72.70
2017-11-22T10:02:03.267Z,72.70
2017-11-22T10:03:06.047Z,72.20
2017-11-22T10:04:08.588Z,71.90
2017-11-22T10:05:11.993Z,72.30
2017-11-22T10:06:14.565Z,72.20
2017-11-22T10:07:17.360Z,71.90
2017-11-22T10:08:19.955Z,71.90
2017-11-22T10:09:22.699Z,71.90
2017-11-22T10:10:25.262Z,73.10
2017-11-22T10:11:28.192Z,72.70
2017-11-22T10:12:31.525Z,72.00
2017-11-22T10:13:34.283Z,72.00
2017-11-22T10:14:36.865Z,72.20
2017-11-22T10:15:39.606Z,72.40
2017-11-22T10:16:42.224Z,72.70
2017-11-22T10:17:45.240Z,72.40
2017-11-22T10:18:47.946Z,72.40
2017-11-22T10:19:57.259Z,72.20
2017-11-22T10:20:59.968Z,72.20
2017-11-22T10:22:03.487Z,72.40
2017-11-22T10:23:06.091Z,72.60
2017-11-22T10:24:08.664Z,72.60
2017-11-22T10:25:11.218Z,72.60
2017-11-22T10:26:13.784Z,72.50
2017-11-22T10:27:22.022Z,72.60
2017-11-22T10:28:24.883Z,72.60
2017-11-22T10:29:33.292Z,72.70
2017-11-22T10:30:36.038Z,72.10
2017-11-22T10:31:42.656Z,72.60
2017-11-22T10:32:49.989Z,72.10
2017-11-22T10:33:52.576Z,72.00
2017-11-22T10:34:55.332Z,72.20
2017-11-22T10:35:57.914Z,72.30
2017-11-22T10:37:00.664Z,72.20
2017-11-22T10:38:03.227Z,72.40
2017-11-22T10:39:06.012Z,72.50
2017-11-22T10:40:08.655Z,72.20
2017-11-22T10:41:11.371Z,72.40
2017-11-22T10:42:14.096Z,72.50
2017-11-22T10:43:16.666Z,72.30
2017-11-22T10:44:19.229Z,72.00
2017-11-22T10:45:22.283Z,72.30
2017-11-22T10:46:25.695Z,72.60
2017-11-22T10:47:28.296Z,72.50
2017-11-22T10:48:30.863Z,72.30
2017-11-22T10:49:33.595Z,72.30
2017-11-22T10:50:36.181Z,72.10
2017-11-22T10:51:38.931Z,72.50
2017-11-22T10:52:41.521Z,72.20
2017-11-22T10:53:44.425Z,72.20
2017-11-22T10:54:47.013Z,72.40
2017-11-22T10:55:50.551Z,73.00
2017-11-22T10:56:53.149Z,73.00
2017-11-22T10:57:55.960Z,72.80
2017-11-22T10:58:58.539Z,72.90
2017-11-22T11:00:01.249Z,72.70
2017-11-22T11:01:03.816Z,72.70
2017-11-22T11:02:06.581Z,72.90
2017-11-22T11:03:09.122Z,72.70
2017-11-22T11:04:11.917Z,73.00
2017-11-22T11:05:14.464Z,72.90
2017-11-22T11:06:17.244Z,73.40
2017-11-22T11:07:19.843Z,73.30
2017-11-22T11:08:22.605Z,73.00
2017-11-22T11:09:25.201Z,73.20
2017-11-22T11:10:28.648Z,72.90
2017-11-22T11:11:31.235Z,72.80
2017-11-22T11:12:33.862Z,72.60
2017-11-22T11:13:36.437Z,73.10
2017-11-22T11:14:39.203Z,73.00
2017-11-22T11:15:41.754Z,72.80
2017-11-22T11:16:44.558Z,73.10
2017-11-22T11:17:47.119Z,72.70
2017-11-22T11:18:50.839Z,71.80
2017-11-22T11:19:53.384Z,72.30
2017-11-22T11:20:56.138Z,72.10
2017-11-22T11:21:58.690Z,72.60
2017-11-22T11:23:01.481Z,71.60
2017-11-22T11:24:04.062Z,71.90
2017-11-22T11:25:06.829Z,71.80
2017-11-22T11:26:09.412Z,71.40
2017-11-22T11:27:12.185Z,70.70
2017-11-22T11:28:14.754Z,70.60
2017-11-22T11:29:17.490Z,70.70
2017-11-22T11:30:20.084Z,71.10
2017-11-22T11:31:22.832Z,70.60
2017-11-22T11:32:25.410Z,70.50
2017-11-22T11:33:28.391Z,70.20
2017-11-22T11:34:31.049Z,70.40
2017-11-22T11:35:45.681Z,70.20
2017-11-22T11:36:48.246Z,69.40
2017-11-22T11:37:50.913Z,69.90
2017-11-22T11:38:53.466Z,70.00
2017-11-22T11:39:56.791Z,68.90
2017-11-22T11:40:59.398Z,68.90
2017-11-22T11:42:02.115Z,68.70
2017-11-22T11:43:04.658Z,68.60
2017-11-22T11:44:07.452Z,68.50
2017-11-22T11:45:10.006Z,68.70
2017-11-22T11:46:12.841Z,68.30
2017-11-22T11:47:15.389Z,68.30
2017-11-22T11:48:18.159Z,68.30
2017-11-22T11:49:20.722Z,74.80
2017-11-22T11:50:23.506Z,69.30
2017-11-22T11:51:26.152Z,66.10
2017-11-22T11:52:29.088Z,63.40
2017-11-22T11:53:32.416Z,60.20
2017-11-22T11:54:35.069Z,60.00
2017-11-22T11:55:37.668Z,59.30
2017-11-22T11:56:41.359Z,58.10
2017-11-22T11:57:43.921Z,58.00
2017-11-22T11:58:46.669Z,57.80
2017-11-22T11:59:49.227Z,57.80
2017-11-22T12:00:52.033Z,58.00
2017-11-22T12:01:54.633Z,58.10
2017-11-22T12:02:57.977Z,59.10
2017-11-22T12:04:00.543Z,58.40
2017-11-22T12:05:03.285Z,58.30
2017-11-22T12:06:05.825Z,58.20
2017-11-22T12:07:09.278Z,58.40
2017-11-22T12:08:11.835Z,58.40
2017-11-22T12:09:14.586Z,58.20
2017-11-22T12:10:17.141Z,58.10
2017-11-22T12:11:19.915Z,58.00
2017-11-22T12:12:22.494Z,57.80
2017-11-22T12:13:25.273Z,57.60
2017-11-22T12:14:27.841Z,57.60
2017-11-22T12:15:30.740Z,57.70
2017-11-22T12:16:33.299Z,57.90
2017-11-22T12:17:36.049Z,58.00
2017-11-22T12:18:38.604Z,58.20
2017-11-22T12:19:41.290Z,57.90
2017-11-22T12:20:43.863Z,57.80
2017-11-22T12:21:52.280Z,57.80
2017-11-22T12:22:56.980Z,58.30
2017-11-22T12:24:00.603Z,57.80
2017-11-22T12:25:03.175Z,57.60
2017-11-22T12:26:05.903Z,57.70
2017-11-22T12:27:08.477Z,57.80
2017-11-22T12:28:12.017Z,57.80
2017-11-22T12:29:15.340Z,57.60
2017-11-22T12:30:18.098Z,57.50
2017-11-22T12:31:20.667Z,57.60
2017-11-22T12:32:23.552Z,57.40
2017-11-22T12:33:26.220Z,57.40
2017-11-22T12:34:28.787Z,57.20
2017-11-22T12:35:31.360Z,57.40
2017-11-22T12:36:34.129Z,57.80
2017-11-22T12:37:36.709Z,57.70
2017-11-22T12:38:39.486Z,58.00
2017-11-22T12:39:42.037Z,58.10
2017-11-22T12:40:44.811Z,58.40
2017-11-22T12:41:47.452Z,58.20
2017-11-22T12:42:50.144Z,57.80
2017-11-22T12:43:52.712Z,57.70
2017-11-22T12:44:55.475Z,57.10
2017-11-22T12:46:00.896Z,56.80
2017-11-22T12:47:03.637Z,56.80
2017-11-22T12:48:06.360Z,56.70
2017-11-22T12:49:10.239Z,56.70
2017-11-22T12:50:12.803Z,56.80
2017-11-22T12:51:18.350Z,56.80
2017-11-22T12:52:21.065Z,56.80
2017-11-22T12:53:23.888Z,56.80
2017-11-22T12:54:26.564Z,56.80
2017-11-22T12:55:29.241Z,56.80
2017-11-22T12:56:32.073Z,56.70
2017-11-22T12:57:35.495Z,57.20
2017-11-22T12:58:38.049Z,56.50
2017-11-22T12:59:40.865Z,56.40
2017-11-22T13:00:43.729Z,55.90
2017-11-22T13:01:46.472Z,55.50
2017-11-22T13:02:49.031Z,55.70
2017-11-22T13:03:52.451Z,55.80
2017-11-22T13:04:54.992Z,55.80
2017-11-22T13:05:57.812Z,55.80
2017-11-22T13:07:00.362Z,55.80
2017-11-22T13:08:03.174Z,55.70
2017-11-22T13:09:07.007Z,56.00
2017-11-22T13:10:13.576Z,56.00
2017-11-22T13:11:21.890Z,56.10
2017-11-22T13:12:24.554Z,55.70
2017-11-22T13:13:27.110Z,55.80
2017-11-22T13:14:29.886Z,56.00
2017-11-22T13:15:32.659Z,56.10
2017-11-22T13:16:35.284Z,56.10
2017-11-22T13:17:41.589Z,56.20
2017-11-22T13:18:44.238Z,56.10
2017-11-22T13:19:46.792Z,56.00
2017-11-22T13:20:49.643Z,56.20
2017-11-22T13:21:52.292Z,56.10
2017-11-22T13:22:54.912Z,56.00
2017-11-22T13:23:57.462Z,56.00
2017-11-22T13:25:00.870Z,56.00
2017-11-22T13:26:03.474Z,56.00
2017-11-22T13:27:06.269Z,56.00
2017-11-22T13:28:09.606Z,57.60
2017-11-22T13:29:12.189Z,57.50
2017-11-22T13:30:14.794Z,58.40
2017-11-22T13:31:18.104Z,60.50
2017-11-22T13:32:20.683Z,60.50
2017-11-22T13:33:23.456Z,61.10
2017-11-22T13:34:26.025Z,61.60
2017-11-22T13:35:28.777Z,62.30
2017-11-22T13:36:32.094Z,63.20
2017-11-22T13:37:34.959Z,63.10
2017-11-22T13:38:37.522Z,63.60
2017-11-22T13:39:40.107Z,64.20
2017-11-22T13:40:42.666Z,64.80